FYKT/KMP METAR and TAF weather

Enter ICAO airport designator
Station Type Date Time Source
FYKT METAR 2018/12/10 20:00 UTC NOAA

FYKT 102000Z AUTO 21004KT //// // ////// 27/M05 Q1018


Station Type Date Time Source
FYKT Decoded METAR 2018/12/10 20:00 UTC NOAA

Keetmanshoop, Namibia (FYKT) 26-32S 018-07E 1100M
Dec 10, 2018 - 03:00 PM EST / 2018.12.10 2000 UTC
Wind: from the SSW (210 degrees) at 5 MPH (4 KT):0
Temperature: 80 F (27 C)
Dew Point: 23 F (-5 C)
Relative Humidity: 11%
Pressure (altimeter): 30.06 in. Hg (1018 hPa)
ob: FYKT 102000Z AUTO 21004KT //// // ////// 27/M05 Q1018
cycle: 20

Station Type Date Time Source
FYKT TAF 2018/12/10 18:51 UTC NOAA

TAF TAF FYKT 101600Z 1018/1118 17006KT CAVOK
BECMG 1104/1106 07008KT
BECMG 1110/1112 31004KT


Example: see airport list